createdAt,value
2019-02-19T00:02:21.628Z,4.07
2019-02-19T00:04:48.308Z,4.20
2019-02-19T00:07:15.110Z,4.00
2019-02-19T00:09:41.753Z,3.97
2019-02-19T00:12:08.456Z,3.80
2019-02-19T00:14:35.126Z,5.00
2019-02-19T00:17:01.780Z,4.00
2019-02-19T00:19:28.787Z,4.80
2019-02-19T00:21:55.451Z,4.03
2019-02-19T00:24:22.343Z,3.60
2019-02-19T00:26:48.982Z,3.80
2019-02-19T00:29:15.559Z,4.40
2019-02-19T00:31:42.186Z,4.77
2019-02-19T00:34:08.886Z,4.13
2019-02-19T00:36:35.580Z,4.20
2019-02-19T00:39:02.762Z,4.07
2019-02-19T00:41:29.602Z,3.57
2019-02-19T00:43:56.287Z,3.73
2019-02-19T00:46:22.934Z,3.53
2019-02-19T00:48:49.506Z,4.80
2019-02-19T00:51:16.163Z,4.27
2019-02-19T00:53:42.769Z,4.70
2019-02-19T00:56:09.539Z,3.90
2019-02-19T00:58:36.262Z,3.83
2019-02-19T01:01:03.067Z,4.33
2019-02-19T01:03:29.747Z,4.03
2019-02-19T01:05:56.416Z,4.60
2019-02-19T01:08:23.100Z,4.60
2019-02-19T01:10:49.775Z,3.67
2019-02-19T01:13:16.455Z,4.20
2019-02-19T01:15:43.101Z,4.23
2019-02-19T01:18:09.852Z,4.23
2019-02-19T01:20:36.499Z,4.47
2019-02-19T01:23:03.162Z,4.90
2019-02-19T01:25:31.679Z,4.93
2019-02-19T01:27:58.474Z,3.50
2019-02-19T01:30:25.199Z,5.17
2019-02-19T01:32:51.902Z,5.53
2019-02-19T01:35:18.698Z,4.27
2019-02-19T01:37:45.358Z,4.60
2019-02-19T01:40:12.035Z,4.47
2019-02-19T01:42:38.687Z,4.07
2019-02-19T01:45:06.757Z,4.33
2019-02-19T01:47:33.520Z,4.47
2019-02-19T01:50:00.288Z,4.23
2019-02-19T01:52:27.035Z,3.97
2019-02-19T01:54:53.772Z,3.93
2019-02-19T01:57:21.688Z,4.07
2019-02-19T01:59:49.243Z,5.23
2019-02-19T02:02:18.025Z,3.37
2019-02-19T02:04:44.740Z,4.23
2019-02-19T02:07:11.541Z,4.53
2019-02-19T02:09:38.176Z,4.40
2019-02-19T02:12:04.964Z,4.07
2019-02-19T02:14:31.738Z,3.80
2019-02-19T02:16:58.395Z,4.93
2019-02-19T02:19:25.183Z,5.07
2019-02-19T02:21:51.855Z,4.17
2019-02-19T02:24:18.531Z,3.43
2019-02-19T02:26:45.210Z,4.53
2019-02-19T02:29:11.888Z,3.50
2019-02-19T02:31:38.653Z,4.17
2019-02-19T02:34:05.407Z,4.00
2019-02-19T02:36:32.071Z,3.10
2019-02-19T02:38:58.798Z,3.40
2019-02-19T02:41:25.466Z,3.47
2019-02-19T02:43:52.050Z,4.00
2019-02-19T02:46:18.831Z,3.87
2019-02-19T02:48:45.510Z,3.30
2019-02-19T02:51:12.350Z,3.40
2019-02-19T02:53:39.062Z,4.50
2019-02-19T02:56:05.895Z,3.73
2019-02-19T02:58:32.433Z,4.00
2019-02-19T03:00:59.212Z,4.53
2019-02-19T03:03:25.894Z,4.10
2019-02-19T03:06:19.551Z,3.57
2019-02-19T03:08:46.649Z,4.53
2019-02-19T03:11:13.366Z,3.57
2019-02-19T03:13:40.034Z,4.40
2019-02-19T03:16:06.688Z,3.77
2019-02-19T03:18:33.336Z,3.37
2019-02-19T03:21:00.022Z,4.07
2019-02-19T03:23:26.780Z,3.83
2019-02-19T03:25:53.437Z,4.00
2019-02-19T03:28:20.005Z,3.77
2019-02-19T03:30:46.707Z,3.90
2019-02-19T03:33:13.363Z,4.23
2019-02-19T03:35:39.948Z,3.80
2019-02-19T03:38:06.594Z,5.50
2019-02-19T03:40:33.239Z,3.87
2019-02-19T03:43:00.022Z,4.20
2019-02-19T03:45:26.777Z,3.90
2019-02-19T03:47:53.325Z,3.87
2019-02-19T03:50:20.017Z,4.33
2019-02-19T03:52:46.782Z,4.00
2019-02-19T03:55:13.648Z,4.03
2019-02-19T03:57:40.339Z,3.90
2019-02-19T04:00:07.423Z,4.87
2019-02-19T04:02:34.079Z,4.33
2019-02-19T04:05:00.768Z,5.33
2019-02-19T04:07:27.595Z,5.07
2019-02-19T04:09:54.275Z,5.93
2019-02-19T04:12:20.974Z,4.30
2019-02-19T04:14:47.652Z,5.63
2019-02-19T04:17:14.432Z,5.43
2019-02-19T04:19:41.005Z,4.80
2019-02-19T04:22:07.557Z,4.70
2019-02-19T04:24:34.132Z,5.10
2019-02-19T04:27:00.699Z,6.57
2019-02-19T04:29:27.376Z,4.67
2019-02-19T04:31:54.056Z,4.43
2019-02-19T04:34:20.913Z,4.83
2019-02-19T04:36:47.713Z,5.47
2019-02-19T04:39:14.411Z,4.87
2019-02-19T04:41:41.204Z,4.80
2019-02-19T04:44:07.956Z,3.73
2019-02-19T04:46:34.734Z,3.67
2019-02-19T04:49:01.537Z,4.83
2019-02-19T04:51:28.169Z,4.53
2019-02-19T04:53:58.813Z,4.10
2019-02-19T04:56:25.686Z,4.00
2019-02-19T04:58:52.387Z,4.33
2019-02-19T05:01:18.965Z,4.73
2019-02-19T05:03:51.520Z,4.77
2019-02-19T05:06:18.215Z,3.53
2019-02-19T05:08:45.027Z,3.93
2019-02-19T05:11:12.002Z,3.80
2019-02-19T05:13:38.709Z,4.27
2019-02-19T05:16:05.563Z,4.50
2019-02-19T05:18:32.366Z,2.97
2019-02-19T05:20:58.958Z,4.10
2019-02-19T05:23:25.772Z,4.20
2019-02-19T05:25:52.544Z,4.57
2019-02-19T05:28:19.304Z,3.63
2019-02-19T05:30:45.963Z,4.10
2019-02-19T05:33:12.956Z,5.07
2019-02-19T05:35:39.711Z,4.33
2019-02-19T05:38:06.525Z,4.10
2019-02-19T05:40:33.587Z,4.27
2019-02-19T05:43:01.569Z,4.47
2019-02-19T05:45:28.640Z,4.30
2019-02-19T05:47:55.537Z,5.87
2019-02-19T05:50:22.575Z,5.43
2019-02-19T05:52:49.239Z,4.73
2019-02-19T05:55:16.103Z,3.77
2019-02-19T05:57:42.823Z,5.03
2019-02-19T06:00:09.832Z,5.10
2019-02-19T06:02:37.165Z,5.80
2019-02-19T06:05:05.929Z,4.67
2019-02-19T06:07:34.707Z,4.93
2019-02-19T06:10:01.413Z,4.37
2019-02-19T06:12:28.203Z,5.23
2019-02-19T06:14:54.942Z,4.57
2019-02-19T06:17:21.858Z,5.17
2019-02-19T06:19:50.858Z,4.50
2019-02-19T06:22:17.808Z,4.27
2019-02-19T06:24:44.660Z,4.37
2019-02-19T06:27:11.825Z,5.53
2019-02-19T06:29:38.991Z,5.33
2019-02-19T06:32:05.828Z,4.07
2019-02-19T06:34:32.771Z,4.33
2019-02-19T06:36:59.821Z,4.03
2019-02-19T06:39:26.613Z,4.83
2019-02-19T06:41:53.524Z,4.50
2019-02-19T06:44:20.420Z,4.33
2019-02-19T06:46:47.220Z,5.23
2019-02-19T06:49:14.179Z,5.07
2019-02-19T06:51:40.824Z,4.87
2019-02-19T06:54:07.744Z,5.17
2019-02-19T06:56:34.472Z,5.53
2019-02-19T06:59:01.035Z,6.33
2019-02-19T07:02:02.921Z,6.10
2019-02-19T07:04:33.679Z,5.43
2019-02-19T07:07:00.392Z,5.90
2019-02-19T07:09:27.147Z,6.60
2019-02-19T07:11:53.872Z,5.80
2019-02-19T07:14:20.735Z,5.87
2019-02-19T07:16:47.560Z,5.47
2019-02-19T07:19:14.343Z,5.93
2019-02-19T07:21:41.020Z,5.00
2019-02-19T07:24:07.711Z,5.80
2019-02-19T07:26:34.302Z,5.43
2019-02-19T07:29:01.192Z,6.60
2019-02-19T07:31:27.756Z,6.13
2019-02-19T07:33:54.416Z,6.37
2019-02-19T07:36:21.293Z,5.27
2019-02-19T07:38:47.927Z,6.13
2019-02-19T07:41:14.731Z,6.27
2019-02-19T07:43:41.423Z,6.03
2019-02-19T07:46:08.074Z,5.60
2019-02-19T07:48:34.805Z,6.87
2019-02-19T07:51:01.455Z,6.87
2019-02-19T07:53:28.034Z,5.67
2019-02-19T07:55:54.719Z,6.00
2019-02-19T07:58:21.402Z,6.97
2019-02-19T08:00:48.060Z,6.60
2019-02-19T08:03:14.670Z,6.67
2019-02-19T08:05:41.204Z,6.27
2019-02-19T08:08:08.048Z,6.03
2019-02-19T08:10:34.585Z,6.43
2019-02-19T08:13:01.257Z,6.17
2019-02-19T08:15:27.808Z,5.53
2019-02-19T08:17:54.474Z,6.37
2019-02-19T08:20:21.142Z,6.83
2019-02-19T08:22:49.818Z,5.63
2019-02-19T08:25:16.377Z,6.20
2019-02-19T08:27:43.118Z,6.23
2019-02-19T08:30:11.198Z,6.80
2019-02-19T08:32:38.297Z,5.73
2019-02-19T08:35:05.213Z,5.67
2019-02-19T08:37:31.894Z,5.80
2019-02-19T08:39:58.664Z,5.77
2019-02-19T08:42:25.350Z,6.40
2019-02-19T08:44:52.031Z,6.63
2019-02-19T08:47:18.793Z,6.27
2019-02-19T08:49:45.369Z,6.07
2019-02-19T08:52:12.041Z,6.60
2019-02-19T08:54:38.897Z,6.47
2019-02-19T08:57:05.584Z,6.23
2019-02-19T08:59:32.262Z,5.80
2019-02-19T09:01:59.082Z,6.23
2019-02-19T09:04:25.721Z,6.47
2019-02-19T09:06:52.616Z,6.10
2019-02-19T09:09:19.346Z,7.30
2019-02-19T09:11:46.113Z,7.03
2019-02-19T09:14:12.877Z,6.73
2019-02-19T09:16:39.610Z,7.60
2019-02-19T09:19:06.287Z,6.53
2019-02-19T09:21:32.844Z,7.67
2019-02-19T09:23:59.618Z,7.17
2019-02-19T09:26:26.193Z,7.30
2019-02-19T09:28:52.766Z,7.17
2019-02-19T09:31:19.458Z,6.80
2019-02-19T09:33:46.176Z,7.33
2019-02-19T09:36:12.967Z,7.43
2019-02-19T09:38:39.666Z,8.07
2019-02-19T09:41:06.416Z,7.33
2019-02-19T09:43:35.514Z,7.73
2019-02-19T09:46:01.567Z,7.50
2019-02-19T09:48:28.307Z,7.53
2019-02-19T09:50:54.986Z,7.53
2019-02-19T09:53:21.657Z,6.73
2019-02-19T09:55:48.233Z,6.77
2019-02-19T09:58:14.862Z,6.80
2019-02-19T10:00:41.597Z,7.60
2019-02-19T10:03:08.203Z,7.10
2019-02-19T10:05:35.081Z,7.70
2019-02-19T10:08:01.873Z,6.77
2019-02-19T10:10:28.564Z,7.83
2019-02-19T10:12:55.211Z,7.50
2019-02-19T10:15:21.887Z,7.07
2019-02-19T10:17:48.671Z,7.93
2019-02-19T10:20:15.529Z,7.63
2019-02-19T10:22:42.219Z,7.43
2019-02-19T10:25:09.376Z,8.07
2019-02-19T10:27:36.146Z,7.10
2019-02-19T10:30:03.378Z,7.57
2019-02-19T10:32:29.968Z,7.93
2019-02-19T10:34:56.799Z,8.47
2019-02-19T10:37:23.564Z,7.77
2019-02-19T10:39:50.410Z,7.80
2019-02-19T10:42:18.934Z,7.67
2019-02-19T10:44:45.842Z,7.40
2019-02-19T10:47:12.606Z,7.03
2019-02-19T10:49:39.293Z,7.90
2019-02-19T10:52:06.048Z,7.17
2019-02-19T10:54:32.906Z,7.23
2019-02-19T10:56:59.723Z,6.67
2019-02-19T10:59:26.575Z,6.27
2019-02-19T11:01:53.368Z,7.50
2019-02-19T11:04:20.090Z,6.83
2019-02-19T11:06:46.852Z,6.90
2019-02-19T11:09:13.428Z,7.43
2019-02-19T11:11:40.093Z,8.23
2019-02-19T11:14:07.798Z,7.63
2019-02-19T11:16:34.410Z,7.27
2019-02-19T11:19:01.206Z,8.10
2019-02-19T11:21:27.884Z,6.10
2019-02-19T11:23:54.696Z,6.93
2019-02-19T11:26:21.442Z,7.57
2019-02-19T11:28:48.141Z,6.67
2019-02-19T11:31:14.686Z,5.80
2019-02-19T11:33:41.360Z,5.33
2019-02-19T11:36:08.087Z,6.27
2019-02-19T11:38:34.931Z,5.43
2019-02-19T11:41:01.609Z,5.90
2019-02-19T11:43:28.413Z,6.23
2019-02-19T11:45:55.169Z,5.97
2019-02-19T11:48:21.735Z,6.37
2019-02-19T11:50:48.557Z,7.33
2019-02-19T11:53:15.234Z,5.83
2019-02-19T11:55:41.911Z,6.50
2019-02-19T11:58:08.599Z,6.00
2019-02-19T12:00:37.694Z,5.50
2019-02-19T12:03:04.587Z,6.00
2019-02-19T12:05:31.259Z,5.67
2019-02-19T12:07:58.112Z,6.30
2019-02-19T12:10:24.933Z,5.93
2019-02-19T12:12:51.848Z,6.20
2019-02-19T12:15:21.511Z,5.33
2019-02-19T12:17:48.230Z,5.80
2019-02-19T12:20:14.878Z,6.33
2019-02-19T12:22:41.693Z,6.27
2019-02-19T12:25:09.193Z,5.67
2019-02-19T12:27:35.899Z,5.83
2019-02-19T12:30:02.738Z,6.40
2019-02-19T12:32:29.418Z,5.27
2019-02-19T12:34:56.280Z,5.77
2019-02-19T12:37:23.007Z,5.83
2019-02-19T12:39:49.818Z,6.23
2019-02-19T12:42:16.531Z,6.00
2019-02-19T12:44:45.186Z,5.33
2019-02-19T12:47:11.861Z,6.30
2019-02-19T12:49:38.984Z,5.90
2019-02-19T12:52:05.842Z,6.03
2019-02-19T12:54:32.726Z,5.43
2019-02-19T12:56:59.549Z,4.97
2019-02-19T12:59:26.253Z,5.40
2019-02-19T13:01:53.012Z,4.90
2019-02-19T13:04:19.775Z,5.00
2019-02-19T13:06:46.625Z,5.13
2019-02-19T13:09:13.358Z,5.10
2019-02-19T13:11:40.148Z,5.17
2019-02-19T13:14:07.924Z,4.77
2019-02-19T13:16:34.716Z,4.57
2019-02-19T13:19:03.794Z,4.97
2019-02-19T13:21:30.071Z,4.80
2019-02-19T13:23:56.997Z,5.40
2019-02-19T13:26:23.716Z,5.03
2019-02-19T13:28:50.326Z,4.97
2019-02-19T13:31:17.147Z,4.83
2019-02-19T13:33:43.963Z,4.70
2019-02-19T13:36:10.659Z,4.27
2019-02-19T13:38:37.445Z,4.00
2019-02-19T13:41:04.108Z,4.50
2019-02-19T13:43:30.981Z,4.50
2019-02-19T13:45:57.667Z,4.07
2019-02-19T13:48:24.410Z,4.97
2019-02-19T13:50:51.166Z,4.57
2019-02-19T13:53:40.366Z,4.90
2019-02-19T13:56:07.166Z,4.60
2019-02-19T13:58:34.006Z,4.07
2019-02-19T14:01:00.785Z,4.00
2019-02-19T14:03:27.510Z,4.53
2019-02-19T14:05:54.554Z,4.43
2019-02-19T14:08:21.385Z,4.23
2019-02-19T14:10:48.170Z,4.07
2019-02-19T14:13:14.953Z,4.40
2019-02-19T14:16:04.100Z,4.40
2019-02-19T14:18:49.235Z,4.90
2019-02-19T14:21:34.173Z,4.87
2019-02-19T14:24:09.372Z,4.30
2019-02-19T14:26:47.449Z,4.70
2019-02-19T14:29:32.284Z,3.80
2019-02-19T14:32:16.755Z,4.50
2019-02-19T14:35:00.354Z,4.40
2019-02-19T14:38:04.542Z,4.30
2019-02-19T14:40:59.562Z,4.10
2019-02-19T14:43:36.367Z,4.50
2019-02-19T14:46:28.401Z,4.10
2019-02-19T14:49:17.695Z,4.47
2019-02-19T14:51:55.128Z,3.77
2019-02-19T14:54:45.828Z,4.10
2019-02-19T14:57:32.311Z,3.53
2019-02-19T15:00:14.202Z,4.00
2019-02-19T15:03:00.964Z,3.43
2019-02-19T15:05:53.460Z,3.50
2019-02-19T15:08:57.979Z,4.13
2019-02-19T15:11:39.036Z,4.13
2019-02-19T15:14:24.199Z,4.03
2019-02-19T15:17:08.872Z,4.10
2019-02-19T15:20:06.997Z,3.57
2019-02-19T15:22:51.818Z,4.00
2019-02-19T15:25:40.760Z,4.40
2019-02-19T15:28:33.200Z,3.90
2019-02-19T15:31:19.569Z,4.60
2019-02-19T15:34:06.578Z,4.10
2019-02-19T15:36:51.938Z,3.60
2019-02-19T15:39:37.309Z,3.53
2019-02-19T15:42:20.082Z,3.47
2019-02-19T15:45:05.089Z,3.67
2019-02-19T15:47:57.546Z,3.87
2019-02-19T15:50:43.986Z,3.20
2019-02-19T15:53:20.552Z,3.70
2019-02-19T15:55:59.347Z,3.63
2019-02-19T15:58:51.376Z,3.53
2019-02-19T16:01:53.994Z,3.37
2019-02-19T16:04:37.131Z,3.50
2019-02-19T16:07:14.683Z,3.40
2019-02-19T16:09:53.633Z,3.53
2019-02-19T16:12:49.260Z,3.30
2019-02-19T16:15:47.803Z,3.30
2019-02-19T16:18:31.149Z,3.60
2019-02-19T16:21:16.461Z,4.53
2019-02-19T16:24:08.490Z,6.77
2019-02-19T16:27:03.779Z,9.87
2019-02-19T16:29:56.819Z,8.73
2019-02-19T16:32:29.441Z,8.20
2019-02-19T16:35:15.991Z,8.37
2019-02-19T16:37:59.302Z,8.27
2019-02-19T16:40:57.609Z,8.90
2019-02-19T16:43:49.958Z,7.93
2019-02-19T16:46:22.792Z,7.73
2019-02-19T16:49:18.083Z,7.93
2019-02-19T16:51:57.915Z,7.37
2019-02-19T16:54:40.801Z,5.43
2019-02-19T16:57:29.830Z,3.90
2019-02-19T17:00:14.628Z,3.50
2019-02-19T17:03:03.652Z,3.37
2019-02-19T17:05:39.977Z,3.00
2019-02-19T17:08:32.912Z,2.90
2019-02-19T17:11:09.837Z,3.40
2019-02-19T17:14:04.317Z,3.07
2019-02-19T17:16:49.482Z,3.00
2019-02-19T17:19:29.263Z,2.97
2019-02-19T17:22:15.744Z,3.23
2019-02-19T17:25:08.154Z,3.23
2019-02-19T17:27:40.779Z,3.10
2019-02-19T17:30:30.328Z,3.43
2019-02-19T17:33:09.865Z,3.73
2019-02-19T17:35:58.927Z,3.57
2019-02-19T17:38:50.032Z,4.20
2019-02-19T17:41:28.993Z,3.73
2019-02-19T17:44:13.747Z,3.33
2019-02-19T17:47:08.976Z,4.17
2019-02-19T17:49:49.952Z,3.67
2019-02-19T17:52:34.853Z,3.63
2019-02-19T17:55:19.698Z,3.50
2019-02-19T17:58:08.090Z,3.83
2019-02-19T18:01:11.119Z,3.77
2019-02-19T18:03:49.324Z,4.00
2019-02-19T18:06:23.509Z,3.40
2019-02-19T18:08:57.181Z,4.10
2019-02-19T18:11:42.308Z,3.90
2019-02-19T18:14:29.726Z,4.83
2019-02-19T18:17:24.987Z,4.10
2019-02-19T18:19:51.686Z,4.47
2019-02-19T18:22:18.525Z,3.80
2019-02-19T18:24:45.801Z,4.50
2019-02-19T18:27:12.672Z,4.13
2019-02-19T18:29:39.561Z,4.10
2019-02-19T18:32:07.517Z,4.67
2019-02-19T18:34:34.366Z,4.23
2019-02-19T18:37:01.092Z,4.73
2019-02-19T18:39:27.812Z,4.23
2019-02-19T18:41:54.572Z,4.30
2019-02-19T18:44:23.603Z,4.43
2019-02-19T18:46:50.493Z,4.47
2019-02-19T18:49:18.299Z,4.70
2019-02-19T18:51:45.312Z,4.43
2019-02-19T18:54:14.544Z,4.30
2019-02-19T18:56:42.149Z,5.23
2019-02-19T18:59:08.839Z,5.03
2019-02-19T19:01:35.862Z,5.00
2019-02-19T19:04:05.019Z,4.50
2019-02-19T19:06:31.749Z,4.57
2019-02-19T19:08:58.561Z,4.20
2019-02-19T19:11:25.527Z,4.43
2019-02-19T19:13:52.366Z,4.40
2019-02-19T19:16:21.241Z,4.43
2019-02-19T19:18:48.295Z,5.07
2019-02-19T19:21:15.145Z,3.90
2019-02-19T19:23:41.968Z,4.70
2019-02-19T19:26:08.769Z,5.07
2019-02-19T19:28:35.533Z,4.73
2019-02-19T19:31:02.427Z,5.03
2019-02-19T19:33:29.209Z,4.33
2019-02-19T19:35:56.189Z,4.37
2019-02-19T19:38:22.845Z,5.03
2019-02-19T19:40:49.625Z,4.23
2019-02-19T19:43:16.435Z,4.03
2019-02-19T19:45:43.236Z,4.60
2019-02-19T19:48:10.166Z,4.40
2019-02-19T19:50:36.974Z,4.67
2019-02-19T19:53:03.944Z,5.93
2019-02-19T19:55:30.716Z,4.23
2019-02-19T19:57:57.419Z,4.27
2019-02-19T20:00:24.114Z,4.33
2019-02-19T20:02:50.934Z,4.53
2019-02-19T20:05:17.680Z,5.03
2019-02-19T20:07:44.693Z,4.40
2019-02-19T20:10:16.285Z,4.63
2019-02-19T20:12:43.170Z,4.60
2019-02-19T20:15:10.165Z,4.37
2019-02-19T20:17:37.596Z,4.93
2019-02-19T20:20:05.141Z,4.30
2019-02-19T20:22:32.105Z,4.50
2019-02-19T20:24:58.961Z,4.30
2019-02-19T20:27:25.754Z,4.20
2019-02-19T20:29:52.420Z,3.90
2019-02-19T20:32:19.334Z,4.27
2019-02-19T20:34:46.260Z,3.97
2019-02-19T20:37:12.928Z,4.43
2019-02-19T20:39:39.776Z,4.73
2019-02-19T20:42:06.577Z,4.40
2019-02-19T20:44:33.442Z,4.93
2019-02-19T20:47:00.423Z,4.90
2019-02-19T20:49:28.375Z,4.43
2019-02-19T20:51:55.245Z,4.67
2019-02-19T20:54:22.210Z,5.10
2019-02-19T20:56:49.024Z,4.60
2019-02-19T20:59:17.037Z,5.27
2019-02-19T21:01:44.869Z,5.97
2019-02-19T21:04:11.921Z,4.90
2019-02-19T21:06:38.871Z,4.40
2019-02-19T21:09:06.827Z,4.83
2019-02-19T21:11:34.238Z,4.77
2019-02-19T21:14:01.282Z,5.40
2019-02-19T21:16:28.075Z,4.73
2019-02-19T21:18:55.019Z,3.73
2019-02-19T21:21:21.971Z,4.80
2019-02-19T21:23:49.706Z,4.90
2019-02-19T21:26:16.527Z,5.20
2019-02-19T21:28:43.602Z,4.63
2019-02-19T21:31:10.477Z,4.60
2019-02-19T21:33:37.402Z,4.37
2019-02-19T21:36:04.333Z,4.30
2019-02-19T21:38:31.168Z,4.73
2019-02-19T21:40:57.871Z,4.33
2019-02-19T21:43:24.723Z,5.33
2019-02-19T21:45:51.515Z,5.10
2019-02-19T21:48:18.211Z,5.23
2019-02-19T21:50:45.142Z,5.07
2019-02-19T21:53:11.842Z,4.83
2019-02-19T21:55:44.495Z,4.53
2019-02-19T21:58:11.252Z,4.80
2019-02-19T22:00:38.004Z,5.20
2019-02-19T22:03:04.868Z,4.70
2019-02-19T22:05:31.586Z,4.80
2019-02-19T22:07:58.495Z,5.10
2019-02-19T22:10:25.468Z,4.43
2019-02-19T22:12:52.264Z,5.13
2019-02-19T22:15:19.104Z,5.07
2019-02-19T22:17:45.956Z,5.00
2019-02-19T22:20:33.582Z,5.60
2019-02-19T22:23:00.519Z,4.93
2019-02-19T22:25:27.420Z,5.17
2019-02-19T22:27:54.311Z,5.63
2019-02-19T22:30:21.159Z,5.37
2019-02-19T22:32:48.032Z,4.93
2019-02-19T22:35:14.925Z,4.80
2019-02-19T22:37:41.779Z,5.47
2019-02-19T22:40:14.610Z,4.40
2019-02-19T22:42:41.356Z,5.70
2019-02-19T22:45:08.788Z,5.57
2019-02-19T22:47:35.546Z,5.83
2019-02-19T22:50:02.606Z,5.63
2019-02-19T22:52:29.699Z,5.77
2019-02-19T22:55:22.226Z,4.53
2019-02-19T22:57:48.986Z,4.57
2019-02-19T23:00:44.173Z,5.90
2019-02-19T23:03:10.869Z,5.80
2019-02-19T23:05:37.643Z,5.70
2019-02-19T23:08:04.497Z,7.07
2019-02-19T23:10:31.192Z,5.57
2019-02-19T23:12:58.177Z,5.30
2019-02-19T23:15:25.039Z,5.30
2019-02-19T23:17:51.844Z,5.07
2019-02-19T23:20:18.483Z,5.53
2019-02-19T23:22:45.331Z,5.13
2019-02-19T23:25:12.127Z,5.97
2019-02-19T23:27:38.736Z,5.77
2019-02-19T23:30:05.843Z,6.00
2019-02-19T23:32:32.545Z,5.30
2019-02-19T23:35:30.886Z,4.77
2019-02-19T23:37:57.677Z,3.73
2019-02-19T23:40:24.491Z,5.03
2019-02-19T23:42:51.186Z,5.67
2019-02-19T23:45:18.070Z,5.90
2019-02-19T23:47:44.866Z,4.00
2019-02-19T23:50:11.679Z,5.03
2019-02-19T23:52:38.531Z,4.30
2019-02-19T23:55:05.263Z,5.40
2019-02-19T23:57:31.986Z,4.40
2019-02-19T23:59:58.762Z,4.37
